createdAt,value
2023-02-11T00:00:22.152Z,101738.06
2023-02-11T00:02:48.996Z,101714.22
2023-02-11T00:05:15.769Z,101735.88
2023-02-11T00:10:36.590Z,101747.47
2023-02-11T00:13:03.247Z,101731.69
2023-02-11T00:15:29.906Z,101743.59
2023-02-11T00:17:56.626Z,101740.28
2023-02-11T00:20:23.297Z,101736.69
2023-02-11T00:22:50.019Z,101732.50
2023-02-11T00:25:16.724Z,101705.53
2023-02-11T00:27:43.408Z,101731.69
2023-02-11T00:30:11.299Z,101730.56
2023-02-11T00:32:38.015Z,101723.34
2023-02-11T00:35:04.998Z,101726.00
2023-02-11T00:37:31.698Z,101712.31
2023-02-11T00:39:58.506Z,101721.97
2023-02-11T00:42:25.325Z,101719.66
2023-02-11T00:44:52.614Z,101690.69
2023-02-11T00:47:19.251Z,101715.13
2023-02-11T00:49:45.998Z,101712.59
2023-02-11T00:52:12.892Z,101717.06
2023-02-11T00:54:39.813Z,101716.47
2023-02-11T00:57:06.459Z,101716.47
2023-02-11T00:59:33.202Z,101707.25
2023-02-11T01:01:59.927Z,101714.88
2023-02-11T01:04:26.736Z,101710.44
2023-02-11T01:06:53.589Z,101709.84
2023-02-11T01:12:16.399Z,101719.50
2023-02-11T01:14:43.213Z,101724.69
2023-02-11T01:17:09.937Z,101700.91
2023-02-11T01:19:37.686Z,101717.91
2023-02-11T01:22:05.269Z,101720.66
2023-02-11T01:24:31.976Z,101710.28
2023-02-11T01:26:58.725Z,101714.06
2023-02-11T01:29:25.634Z,101704.69
2023-02-11T01:31:52.564Z,101707.28
2023-02-11T01:34:19.221Z,101705.16
2023-02-11T01:36:45.938Z,101703.81
2023-02-11T01:39:12.630Z,101675.13
2023-02-11T01:41:39.362Z,101701.22
2023-02-11T01:44:37.575Z,101694.09
2023-02-11T01:47:07.030Z,101688.13
2023-02-11T01:49:36.555Z,101699.09
2023-02-11T01:52:12.605Z,101697.59
2023-02-11T01:55:04.979Z,101678.97
2023-02-11T01:57:35.881Z,101690.28
2023-02-11T02:00:11.616Z,101696.38
2023-02-11T02:03:02.755Z,101691.25
2023-02-11T02:05:29.320Z,101687.81
2023-02-11T02:08:19.826Z,101684.44
2023-02-11T02:10:48.984Z,101691.47
2023-02-11T02:13:15.891Z,101690.56
2023-02-11T02:15:50.942Z,101695.75
2023-02-11T02:18:38.801Z,101691.53
2023-02-11T02:21:23.936Z,101689.00
2023-02-11T02:24:08.696Z,101688.28
2023-02-11T02:27:13.905Z,101682.13
2023-02-11T02:29:58.331Z,101689.94
2023-02-11T02:32:27.778Z,101690.06
2023-02-11T02:35:02.297Z,101676.41
2023-02-11T02:37:38.530Z,101678.63
2023-02-11T02:40:14.315Z,101680.97
2023-02-11T02:42:42.020Z,101679.13
2023-02-11T02:45:11.097Z,101680.81
2023-02-11T02:47:37.929Z,101682.69
2023-02-11T02:50:07.799Z,101679.91
2023-02-11T02:52:34.411Z,101677.97
2023-02-11T02:55:01.025Z,101678.22
2023-02-11T02:57:33.666Z,101673.94
2023-02-11T03:00:26.146Z,101681.16
2023-02-11T03:03:37.764Z,101683.63
2023-02-11T03:06:18.094Z,101681.38
2023-02-11T03:08:50.650Z,101677.13
2023-02-11T03:11:20.407Z,101662.91
2023-02-11T03:13:49.018Z,101679.59
2023-02-11T03:16:22.092Z,101682.25
2023-02-11T03:18:53.333Z,101682.69
2023-02-11T03:21:21.086Z,101680.88
2023-02-11T03:23:53.984Z,101680.53
2023-02-11T03:26:25.801Z,101680.53
2023-02-11T03:28:59.591Z,101686.69
2023-02-11T03:31:37.189Z,101683.91
2023-02-11T03:34:16.514Z,101680.59
2023-02-11T03:36:53.253Z,101680.06
2023-02-11T03:39:25.344Z,101687.09
2023-02-11T03:41:55.145Z,101657.25
2023-02-11T03:44:25.471Z,101677.66
2023-02-11T03:46:54.416Z,101668.28
2023-02-11T03:49:23.812Z,101666.88
2023-02-11T03:51:53.105Z,101674.19
2023-02-11T03:54:24.630Z,101670.31
2023-02-11T03:56:53.975Z,101664.16
2023-02-11T03:59:20.763Z,101670.19
2023-02-11T04:01:47.716Z,101665.63
2023-02-11T04:04:14.992Z,101667.66
2023-02-11T04:06:41.676Z,101661.72
2023-02-11T04:09:08.982Z,101688.41
2023-02-11T04:11:35.688Z,101671.63
2023-02-11T04:14:02.338Z,101691.44
2023-02-11T04:16:30.926Z,101686.41
2023-02-11T04:18:58.095Z,101657.50
2023-02-11T04:21:24.935Z,101684.09
2023-02-11T04:23:51.612Z,101681.78
2023-02-11T04:26:18.267Z,101689.34
2023-02-11T04:28:44.918Z,101687.16
2023-02-11T04:31:12.175Z,101671.72
2023-02-11T04:33:38.989Z,101683.81
2023-02-11T04:36:05.921Z,101686.22
2023-02-11T04:38:32.585Z,101685.31
2023-02-11T04:41:00.669Z,101684.97
2023-02-11T04:43:27.340Z,101688.78
2023-02-11T04:45:58.752Z,101690.59
2023-02-11T04:48:26.742Z,101677.91
2023-02-11T04:50:53.477Z,101663.41
2023-02-11T04:53:20.154Z,101667.63
2023-02-11T04:55:50.969Z,101672.22
2023-02-11T04:58:19.016Z,101678.69
2023-02-11T05:00:46.094Z,101661.94
2023-02-11T05:03:13.603Z,101647.59
2023-02-11T05:05:41.844Z,101660.19
2023-02-11T05:08:09.622Z,101668.28
2023-02-11T05:10:36.560Z,101657.50
2023-02-11T05:13:03.776Z,101644.22
2023-02-11T05:15:31.270Z,101654.91
2023-02-11T05:17:57.964Z,101662.47
2023-02-11T05:20:24.655Z,101654.81
2023-02-11T05:22:51.794Z,101661.19
2023-02-11T05:25:18.754Z,101656.19
2023-02-11T05:27:45.525Z,101657.44
2023-02-11T05:30:12.647Z,101664.66
2023-02-11T05:32:39.436Z,101650.28
2023-02-11T05:35:06.552Z,101647.84
2023-02-11T05:37:33.360Z,101651.47
2023-02-11T05:40:00.156Z,101655.91
2023-02-11T05:42:26.785Z,101665.38
2023-02-11T05:44:53.461Z,101654.66
2023-02-11T05:47:20.203Z,101651.38
2023-02-11T05:49:46.963Z,101656.66
2023-02-11T05:52:13.654Z,101666.91
2023-02-11T05:54:40.384Z,101666.34
2023-02-11T05:57:07.078Z,101676.56
2023-02-11T05:59:33.753Z,101678.88
2023-02-11T06:02:00.526Z,101674.22
2023-02-11T06:04:27.184Z,101663.56
2023-02-11T06:06:53.826Z,101677.16
2023-02-11T06:09:20.519Z,101683.69
2023-02-11T06:11:47.186Z,101681.34
2023-02-11T06:14:14.530Z,101676.13
2023-02-11T06:16:41.163Z,101681.88
2023-02-11T06:19:07.844Z,101675.81
2023-02-11T06:21:43.554Z,101674.56
2023-02-11T06:24:11.337Z,101673.44
2023-02-11T06:26:37.984Z,101668.75
2023-02-11T06:29:04.679Z,101684.25
2023-02-11T06:31:31.502Z,101644.25
2023-02-11T06:33:59.361Z,101672.47
2023-02-11T06:36:26.161Z,101671.56
2023-02-11T06:38:52.892Z,101672.47
2023-02-11T06:41:20.457Z,101671.97
2023-02-11T06:43:47.825Z,101673.41
2023-02-11T06:46:15.071Z,101659.97
2023-02-11T06:48:44.490Z,101668.19
2023-02-11T06:51:13.647Z,101674.44
2023-02-11T06:53:46.037Z,101673.09
2023-02-11T06:56:19.123Z,101652.94
2023-02-11T06:58:46.765Z,101671.34
2023-02-11T07:01:16.234Z,101665.63
2023-02-11T07:03:45.096Z,101678.19
2023-02-11T07:06:16.152Z,101647.81
2023-02-11T07:08:43.478Z,101680.75
2023-02-11T07:11:19.245Z,101676.06
2023-02-11T07:13:46.117Z,101682.41
2023-02-11T07:16:15.793Z,101680.66
2023-02-11T07:18:43.207Z,101673.00
2023-02-11T07:21:12.207Z,101664.31
2023-02-11T07:23:40.800Z,101675.53
2023-02-11T07:26:09.486Z,101675.28
2023-02-11T07:28:37.891Z,101666.25
2023-02-11T07:31:10.484Z,101663.31
2023-02-11T07:33:37.974Z,101664.00
2023-02-11T07:36:06.176Z,101645.16
2023-02-11T07:38:33.990Z,101660.00
2023-02-11T07:41:02.539Z,101649.75
2023-02-11T07:43:29.361Z,101652.34
2023-02-11T07:45:56.167Z,101659.69
2023-02-11T07:48:22.895Z,101654.38
2023-02-11T07:50:49.549Z,101647.63
2023-02-11T07:53:16.506Z,101648.56
2023-02-11T07:55:44.170Z,101646.03
2023-02-11T07:58:10.914Z,101648.41
2023-02-11T08:00:37.705Z,101647.25
2023-02-11T08:03:04.410Z,101641.41
2023-02-11T08:05:31.104Z,101639.91
2023-02-11T08:07:57.824Z,101636.06
2023-02-11T08:10:24.461Z,101641.00
2023-02-11T08:12:51.150Z,101632.44
2023-02-11T08:15:17.957Z,101638.72
2023-02-11T08:17:44.646Z,101645.13
2023-02-11T08:20:12.003Z,101647.25
2023-02-11T08:22:38.733Z,101645.53
2023-02-11T08:25:05.909Z,101644.66
2023-02-11T08:27:32.662Z,101635.28
2023-02-11T08:30:00.468Z,101640.63
2023-02-11T08:32:27.145Z,101635.91
2023-02-11T08:34:54.132Z,101637.81
2023-02-11T08:37:21.226Z,101630.72
2023-02-11T08:39:47.890Z,101631.22
2023-02-11T08:42:15.846Z,101630.84
2023-02-11T08:44:43.470Z,101635.59
2023-02-11T08:47:10.633Z,101608.88
2023-02-11T08:49:37.564Z,101620.34
2023-02-11T08:52:04.583Z,101621.66
2023-02-11T08:54:31.964Z,101609.22
2023-02-11T08:56:58.654Z,101599.19
2023-02-11T08:59:25.322Z,101612.34
2023-02-11T09:01:52.100Z,101609.81
2023-02-11T09:04:19.387Z,101606.19
2023-02-11T09:06:46.168Z,101599.28
2023-02-11T09:09:14.635Z,101598.69
2023-02-11T09:11:43.025Z,101602.00
2023-02-11T09:14:16.483Z,101564.56
2023-02-11T09:16:43.595Z,101587.47
2023-02-11T09:19:11.127Z,101569.69
2023-02-11T09:21:38.396Z,101556.91
2023-02-11T09:24:06.674Z,101580.00
2023-02-11T09:26:35.438Z,101560.88
2023-02-11T09:29:03.320Z,101566.94
2023-02-11T09:31:32.539Z,101556.66
2023-02-11T09:34:02.679Z,101549.06
2023-02-11T09:36:32.181Z,101552.88
2023-02-11T09:39:00.968Z,101543.97
2023-02-11T09:41:54.034Z,101534.56
2023-02-11T09:44:24.457Z,101532.00
2023-02-11T09:47:00.623Z,101520.41
2023-02-11T09:49:34.910Z,101506.16
2023-02-11T09:52:32.407Z,101509.41
2023-02-11T09:55:02.257Z,101504.44
2023-02-11T09:57:33.695Z,101503.44
2023-02-11T10:00:02.376Z,101499.41
2023-02-11T10:02:45.151Z,101498.38
2023-02-11T10:05:44.135Z,101489.53
2023-02-11T10:08:30.732Z,101489.97
2023-02-11T10:11:22.614Z,101484.97
2023-02-11T10:14:08.116Z,101482.47
2023-02-11T10:16:45.522Z,101467.31
2023-02-11T10:19:24.836Z,101462.72
2023-02-11T10:21:54.582Z,101472.63
2023-02-11T10:24:21.910Z,101460.75
2023-02-11T10:26:49.212Z,101452.16
2023-02-11T10:29:31.334Z,101444.88
2023-02-11T10:32:00.910Z,101440.03
2023-02-11T10:34:27.872Z,101436.81
2023-02-11T10:36:54.557Z,101440.16
2023-02-11T10:39:24.270Z,101424.19
2023-02-11T10:41:56.483Z,101419.56
2023-02-11T10:44:29.851Z,101417.84
2023-02-11T10:46:59.663Z,101405.13
2023-02-11T10:49:41.477Z,101393.53
2023-02-11T10:52:20.656Z,101395.63
2023-02-11T10:55:14.727Z,101392.00
2023-02-11T10:57:53.171Z,101395.59
2023-02-11T11:00:42.233Z,101391.00
2023-02-11T11:03:20.050Z,101392.09
2023-02-11T11:05:48.923Z,101385.81
2023-02-11T11:08:16.432Z,101377.38
2023-02-11T11:11:08.299Z,101364.59
2023-02-11T11:13:53.754Z,101378.09
2023-02-11T11:16:20.567Z,101357.78
2023-02-11T11:18:50.065Z,101352.84
2023-02-11T11:21:48.617Z,101352.94
2023-02-11T11:24:43.325Z,101353.91
2023-02-11T11:27:19.719Z,101357.38
2023-02-11T11:29:53.098Z,101332.94
2023-02-11T11:32:27.586Z,101334.66
2023-02-11T11:35:02.740Z,101335.13
2023-02-11T11:37:32.415Z,101324.53
2023-02-11T11:40:00.829Z,101321.91
2023-02-11T11:42:28.666Z,101318.34
2023-02-11T11:45:16.606Z,101310.66
2023-02-11T11:47:52.095Z,101311.00
2023-02-11T11:50:32.451Z,101301.94
2023-02-11T11:53:19.086Z,101296.00
2023-02-11T11:55:51.623Z,101290.03
2023-02-11T11:58:21.152Z,101279.59
2023-02-11T12:01:22.888Z,101281.84
2023-02-11T12:04:15.455Z,101280.88
2023-02-11T12:06:45.643Z,101270.28
2023-02-11T12:09:33.870Z,101266.25
2023-02-11T12:12:54.073Z,101234.25
2023-02-11T12:15:53.837Z,101250.56
2023-02-11T12:18:47.918Z,101250.13
2023-02-11T12:21:17.659Z,101247.22
2023-02-11T12:24:23.884Z,101187.59
2023-02-11T12:27:39.395Z,101239.19
2023-02-11T12:30:31.534Z,101243.41
2023-02-11T12:33:28.347Z,101242.88
2023-02-11T12:36:13.088Z,101233.53
2023-02-11T12:39:14.149Z,101234.38
2023-02-11T12:42:24.235Z,101232.53
2023-02-11T12:45:11.823Z,101220.41
2023-02-11T12:48:05.653Z,101224.41
2023-02-11T12:50:53.738Z,101216.97
2023-02-11T12:53:32.267Z,101213.47
2023-02-11T12:56:06.136Z,101189.00
2023-02-11T12:58:44.866Z,101209.78
2023-02-11T13:01:23.793Z,101202.47
2023-02-11T13:04:24.187Z,101191.50
2023-02-11T13:07:12.867Z,101198.94
2023-02-11T13:09:51.412Z,101199.63
2023-02-11T13:12:36.888Z,101187.59
2023-02-11T13:15:07.484Z,101187.69
2023-02-11T13:18:01.162Z,101175.84
2023-02-11T13:20:56.322Z,101192.94
2023-02-11T13:23:35.077Z,101192.31
2023-02-11T13:26:10.796Z,101191.31
2023-02-11T13:28:57.445Z,101186.84
2023-02-11T13:31:27.601Z,101177.53
2023-02-11T13:33:54.490Z,101181.22
2023-02-11T13:36:26.802Z,101180.25
2023-02-11T13:38:57.151Z,101161.47
2023-02-11T13:41:34.025Z,101178.97
2023-02-11T13:44:05.204Z,101175.34
2023-02-11T13:46:53.924Z,101172.16
2023-02-11T13:49:33.835Z,101165.19
2023-02-11T13:52:03.630Z,101144.41
2023-02-11T13:54:40.334Z,101160.59
2023-02-11T13:57:22.036Z,101158.22
2023-02-11T13:59:50.778Z,101157.69
2023-02-11T14:02:36.115Z,101156.88
2023-02-11T14:05:24.188Z,101143.41
2023-02-11T14:08:28.132Z,101145.13
2023-02-11T14:11:12.394Z,101136.03
2023-02-11T14:13:48.114Z,101139.66
2023-02-11T14:16:22.554Z,101135.41
2023-02-11T14:18:49.399Z,101130.41
2023-02-11T14:21:28.953Z,101137.47
2023-02-11T14:24:01.863Z,101128.31
2023-02-11T14:26:41.836Z,101127.72
2023-02-11T14:29:18.295Z,101129.56
2023-02-11T14:32:00.031Z,101131.66
2023-02-11T14:34:48.242Z,101125.19
2023-02-11T14:37:27.904Z,101123.19
2023-02-11T14:40:06.465Z,101117.59
2023-02-11T14:42:34.504Z,101119.97
2023-02-11T14:45:08.127Z,101119.88
2023-02-11T14:47:50.710Z,101125.53
2023-02-11T14:50:28.620Z,101119.59
2023-02-11T14:52:57.806Z,101118.06
2023-02-11T14:55:37.168Z,101116.25
2023-02-11T14:58:16.035Z,101116.38
2023-02-11T15:00:52.292Z,101114.94
2023-02-11T15:03:28.023Z,101120.00
2023-02-11T15:05:58.288Z,101091.19
2023-02-11T15:08:25.294Z,101093.28
2023-02-11T15:10:55.181Z,101103.28
2023-02-11T15:13:27.544Z,101101.09
2023-02-11T15:16:09.410Z,101111.78
2023-02-11T15:18:41.128Z,101082.00
2023-02-11T15:21:08.420Z,101103.16
2023-02-11T15:23:35.074Z,101095.94
2023-02-11T15:26:05.819Z,101079.31
2023-02-11T15:28:35.036Z,101103.63
2023-02-11T15:31:16.603Z,101098.31
2023-02-11T15:33:43.823Z,101102.56
2023-02-11T15:36:15.931Z,101080.72
2023-02-11T15:38:43.107Z,101094.13
2023-02-11T15:41:34.458Z,101096.72
2023-02-11T15:44:01.184Z,101090.81
2023-02-11T15:46:37.153Z,101091.13
2023-02-11T15:49:04.813Z,101089.31
2023-02-11T15:51:39.929Z,101066.69
2023-02-11T15:54:19.750Z,101086.53
2023-02-11T15:56:50.912Z,101087.69
2023-02-11T15:59:30.719Z,101082.66
2023-02-11T16:02:05.940Z,101089.19
2023-02-11T16:04:33.069Z,101089.91
2023-02-11T16:06:59.992Z,101085.19
2023-02-11T16:09:35.395Z,101078.22
2023-02-11T16:12:22.512Z,101076.88
2023-02-11T16:14:49.343Z,101082.25
2023-02-11T16:17:19.073Z,101081.28
2023-02-11T16:19:48.625Z,101080.06
2023-02-11T16:22:30.170Z,101081.56
2023-02-11T16:25:00.221Z,101066.16
2023-02-11T16:27:41.067Z,101081.28
2023-02-11T16:30:23.354Z,101077.94
2023-02-11T16:32:50.204Z,101079.34
2023-02-11T16:35:16.910Z,101079.22
2023-02-11T16:37:43.753Z,101086.97
2023-02-11T16:40:12.044Z,101073.50
2023-02-11T16:42:38.705Z,101082.81
2023-02-11T16:45:06.708Z,101084.75
2023-02-11T16:47:35.363Z,101088.22
2023-02-11T16:50:02.762Z,101084.69
2023-02-11T16:52:31.947Z,101086.13
2023-02-11T16:54:59.611Z,101080.47
2023-02-11T16:57:29.644Z,101064.41
2023-02-11T16:59:56.908Z,101070.47
2023-02-11T17:02:30.474Z,101072.22
2023-02-11T17:05:01.467Z,101073.75
2023-02-11T17:07:28.938Z,101069.75
2023-02-11T17:09:56.033Z,101064.22
2023-02-11T17:12:25.497Z,101071.56
2023-02-11T17:14:52.809Z,101072.69
2023-02-11T17:17:19.863Z,101072.81
2023-02-11T17:19:47.965Z,101065.88
2023-02-11T17:22:14.889Z,101063.97
2023-02-11T17:24:41.605Z,101043.41
2023-02-11T17:27:11.102Z,101070.19
2023-02-11T17:29:37.783Z,101058.81
2023-02-11T17:32:04.533Z,101060.69
2023-02-11T17:34:32.452Z,101061.47
2023-02-11T17:37:00.326Z,101059.34
2023-02-11T17:39:27.647Z,101061.28
2023-02-11T17:41:54.828Z,101062.19
2023-02-11T17:44:21.489Z,101063.34
2023-02-11T17:46:48.203Z,101066.13
2023-02-11T17:49:15.806Z,101046.19
2023-02-11T17:51:42.426Z,101056.25
2023-02-11T17:54:12.893Z,101050.16
2023-02-11T17:56:39.722Z,101017.56
2023-02-11T17:59:08.636Z,101058.91
2023-02-11T18:01:36.753Z,101053.41
2023-02-11T18:04:04.814Z,101054.94
2023-02-11T18:06:33.828Z,101054.97
2023-02-11T18:09:04.393Z,101057.47
2023-02-11T18:11:33.811Z,101056.16
2023-02-11T18:14:04.823Z,101040.81
2023-02-11T18:16:31.741Z,101042.81
2023-02-11T18:18:58.925Z,101049.69
2023-02-11T18:21:25.930Z,101057.78
2023-02-11T18:23:52.650Z,101060.56
2023-02-11T18:26:21.442Z,101061.59
2023-02-11T18:28:48.722Z,101053.91
2023-02-11T18:31:15.754Z,101049.09
2023-02-11T18:33:43.318Z,101049.25
2023-02-11T18:36:15.226Z,101059.38
2023-02-11T18:38:44.515Z,101050.94
2023-02-11T18:41:12.271Z,101059.31
2023-02-11T18:43:40.170Z,101064.84
2023-02-11T18:46:09.968Z,101061.94
2023-02-11T18:48:38.055Z,101067.81
2023-02-11T18:51:18.412Z,101072.41
2023-02-11T18:53:45.649Z,101072.81
2023-02-11T18:56:18.946Z,101054.09
2023-02-11T18:58:45.707Z,101072.28
2023-02-11T19:01:18.035Z,101056.69
2023-02-11T19:03:45.697Z,101077.22
2023-02-11T19:06:18.090Z,101056.91
2023-02-11T19:08:44.981Z,101072.38
2023-02-11T19:11:18.171Z,101063.41
2023-02-11T19:13:45.139Z,101064.94
2023-02-11T19:16:13.995Z,101057.47
2023-02-11T19:18:40.868Z,101052.38
2023-02-11T19:21:12.142Z,101037.88
2023-02-11T19:23:38.963Z,101038.47
2023-02-11T19:26:06.836Z,101034.88
2023-02-11T19:28:35.461Z,100954.88
2023-02-11T19:31:07.122Z,101037.13
2023-02-11T19:33:34.099Z,101029.81
2023-02-11T19:36:08.610Z,101044.31
2023-02-11T19:38:35.582Z,101036.03
2023-02-11T19:41:02.602Z,101007.28
2023-02-11T19:43:29.543Z,101008.91
2023-02-11T19:45:57.376Z,101027.81
2023-02-11T19:48:25.418Z,101030.81
2023-02-11T19:50:52.228Z,101022.50
2023-02-11T19:53:19.105Z,101024.97
2023-02-11T19:55:45.758Z,101019.97
2023-02-11T19:58:12.454Z,101020.91
2023-02-11T20:00:39.632Z,101024.00
2023-02-11T20:03:06.848Z,101018.53
2023-02-11T20:05:34.046Z,101020.41
2023-02-11T20:08:00.756Z,101020.75
2023-02-11T20:10:27.403Z,101010.91
2023-02-11T20:12:54.462Z,101001.81
2023-02-11T20:15:21.376Z,101001.84
2023-02-11T20:17:48.119Z,101015.50
2023-02-11T20:20:15.001Z,101013.63
2023-02-11T20:22:41.659Z,101003.66
2023-02-11T20:25:08.471Z,100997.88
2023-02-11T20:27:35.339Z,101002.16
2023-02-11T20:30:02.048Z,100982.59
2023-02-11T20:32:30.127Z,100995.06
2023-02-11T20:34:59.010Z,100998.94
2023-02-11T20:37:25.653Z,100994.66
2023-02-11T20:39:52.293Z,100984.66
2023-02-11T20:42:19.070Z,100985.72
2023-02-11T20:44:45.742Z,100982.47
2023-02-11T20:47:12.599Z,100972.25
2023-02-11T20:49:39.282Z,100974.13
2023-02-11T20:52:06.038Z,100979.50
2023-02-11T20:54:32.685Z,100981.06
2023-02-11T20:56:59.842Z,100978.22
2023-02-11T20:59:26.753Z,100977.00
2023-02-11T21:01:56.045Z,100962.97
2023-02-11T21:04:25.766Z,100969.03
2023-02-11T21:06:56.374Z,100962.59
2023-02-11T21:09:26.217Z,100961.34
2023-02-11T21:11:53.556Z,100955.72
2023-02-11T21:14:22.372Z,100956.66
2023-02-11T21:16:49.910Z,100954.25
2023-02-11T21:19:17.152Z,100946.94
2023-02-11T21:21:44.136Z,100936.38
2023-02-11T21:24:11.751Z,100922.69
2023-02-11T21:26:38.950Z,100927.63
2023-02-11T21:29:07.958Z,100914.25
2023-02-11T21:31:36.412Z,100909.22
2023-02-11T21:34:03.783Z,100915.59
2023-02-11T21:36:30.852Z,100900.16
2023-02-11T21:38:58.378Z,100908.78
2023-02-11T21:41:25.111Z,100911.84
2023-02-11T21:43:52.602Z,100914.13
2023-02-11T21:46:20.835Z,100921.16
2023-02-11T21:48:48.603Z,100916.09
2023-02-11T21:51:19.369Z,100906.09
2023-02-11T21:53:46.879Z,100915.59
2023-02-11T21:56:18.574Z,100904.53
2023-02-11T21:58:46.283Z,100902.88
2023-02-11T22:01:18.905Z,100870.69
2023-02-11T22:03:46.609Z,100881.66
2023-02-11T22:06:17.259Z,100876.94
2023-02-11T22:08:44.350Z,100894.91
2023-02-11T22:11:12.903Z,100877.78
2023-02-11T22:13:40.833Z,100885.72
2023-02-11T22:16:14.105Z,100896.34
2023-02-11T22:18:41.628Z,100887.22
2023-02-11T22:21:11.326Z,100885.69
2023-02-11T22:23:38.875Z,100884.31
2023-02-11T22:26:20.118Z,100878.66
2023-02-11T22:28:47.370Z,100877.75
2023-02-11T22:31:19.276Z,100876.31
2023-02-11T22:33:46.650Z,100865.47
2023-02-11T22:36:17.952Z,100865.53
2023-02-11T22:38:45.657Z,100864.31
2023-02-11T22:41:13.283Z,100863.09
2023-02-11T22:43:42.304Z,100854.94
2023-02-11T22:46:11.495Z,100854.41
2023-02-11T22:48:39.421Z,100852.78
2023-02-11T22:51:08.141Z,100849.53
2023-02-11T22:53:35.031Z,100844.88
2023-02-11T22:56:06.136Z,100846.34
2023-02-11T22:58:33.777Z,100839.13
2023-02-11T23:01:00.453Z,100845.16
2023-02-11T23:03:28.696Z,100838.31
2023-02-11T23:05:57.947Z,100842.72
2023-02-11T23:08:25.525Z,100835.53
2023-02-11T23:10:52.363Z,100831.53
2023-02-11T23:13:19.099Z,100829.41
2023-02-11T23:15:47.047Z,100819.31
2023-02-11T23:18:14.014Z,100827.66
2023-02-11T23:20:43.121Z,100827.50
2023-02-11T23:23:09.789Z,100825.88
2023-02-11T23:25:44.870Z,100821.88
2023-02-11T23:28:12.484Z,100829.00
2023-02-11T23:30:39.564Z,100829.97
2023-02-11T23:33:06.284Z,100843.75
2023-02-11T23:35:33.264Z,100818.25
2023-02-11T23:37:59.944Z,100817.03
2023-02-11T23:40:26.771Z,100813.38
2023-02-11T23:42:53.597Z,100794.41
2023-02-11T23:45:20.341Z,100796.72
2023-02-11T23:47:47.720Z,100819.16
2023-02-11T23:50:14.861Z,100805.59
2023-02-11T23:52:41.750Z,100800.06
2023-02-11T23:55:08.792Z,100805.19
2023-02-11T23:57:35.963Z,100807.94
